sensor_id;sensor_type;location;lat;lon;timestamp;P1;durP1;ratioP1;P2;durP2;ratioP2
5754;SDS011;2902;42.130;24.732;2024-01-15T00:01:45;102.57;;;47.90;;
5754;SDS011;2902;42.130;24.732;2024-01-15T00:04:12;111.20;;;48.57;;
5754;SDS011;2902;42.130;24.732;2024-01-15T00:06:40;87.77;;;44.03;;
5754;SDS011;2902;42.130;24.732;2024-01-15T00:09:06;93.83;;;43.67;;
5754;SDS011;2902;42.130;24.732;2024-01-15T00:11:33;88.30;;;41.73;;
5754;SDS011;2902;42.130;24.732;2024-01-15T00:14:00;88.73;;;41.40;;
5754;SDS011;2902;42.130;24.732;2024-01-15T00:16:28;86.73;;;41.83;;
5754;SDS011;2902;42.130;24.732;2024-01-15T00:18:54;81.07;;;40.23;;
5754;SDS011;2902;42.130;24.732;2024-01-15T00:21:21;93.33;;;41.63;;
5754;SDS011;2902;42.130;24.732;2024-01-15T00:23:49;86.40;;;39.73;;
5754;SDS011;2902;42.130;24.732;2024-01-15T00:26:16;97.07;;;42.07;;
5754;SDS011;2902;42.130;24.732;2024-01-15T00:28:43;96.20;;;40.77;;
5754;SDS011;2902;42.130;24.732;2024-01-15T00:31:09;86.10;;;40.93;;
5754;SDS011;2902;42.130;24.732;2024-01-15T00:33:36;80.90;;;37.73;;
5754;SDS011;2902;42.130;24.732;2024-01-15T00:36:03;94.07;;;43.70;;
5754;SDS011;2902;42.130;24.732;2024-01-15T00:38:30;98.63;;;45.03;;
5754;SDS011;2902;42.130;24.732;2024-01-15T00:40:58;94.57;;;45.97;;
5754;SDS011;2902;42.130;24.732;2024-01-15T00:43:25;91.83;;;42.50;;
5754;SDS011;2902;42.130;24.732;2024-01-15T00:45:51;105.30;;;46.10;;
5754;SDS011;2902;42.130;24.732;2024-01-15T00:48:18;93.20;;;43.53;;
5754;SDS011;2902;42.130;24.732;2024-01-15T00:50:45;100.23;;;46.70;;
5754;SDS011;2902;42.130;24.732;2024-01-15T00:53:11;97.50;;;45.33;;
5754;SDS011;2902;42.130;24.732;2024-01-15T00:55:38;104.63;;;48.60;;
5754;SDS011;2902;42.130;24.732;2024-01-15T00:58:06;118.40;;;52.73;;
5754;SDS011;2902;42.130;24.732;2024-01-15T01:00:33;103.80;;;48.60;;
5754;SDS011;2902;42.130;24.732;2024-01-15T01:02:59;97.63;;;48.47;;
5754;SDS011;2902;42.130;24.732;2024-01-15T01:05:26;97.93;;;47.87;;
5754;SDS011;2902;42.130;24.732;2024-01-15T01:07:53;88.23;;;42.80;;
5754;SDS011;2902;42.130;24.732;2024-01-15T01:10:19;88.33;;;43.70;;
5754;SDS011;2902;42.130;24.732;2024-01-15T01:12:46;83.40;;;43.17;;
5754;SDS011;2902;42.130;24.732;2024-01-15T01:15:14;92.77;;;45.37;;
5754;SDS011;2902;42.130;24.732;2024-01-15T01:17:41;89.40;;;44.97;;
5754;SDS011;2902;42.130;24.732;2024-01-15T01:20:08;87.63;;;42.87;;
5754;SDS011;2902;42.130;24.732;2024-01-15T01:22:35;82.23;;;41.97;;
5754;SDS011;2902;42.130;24.732;2024-01-15T01:25:02;90.83;;;42.87;;
5754;SDS011;2902;42.130;24.732;2024-01-15T01:27:29;87.60;;;42.57;;
5754;SDS011;2902;42.130;24.732;2024-01-15T01:29:56;90.00;;;43.50;;
5754;SDS011;2902;42.130;24.732;2024-01-15T01:32:24;92.90;;;45.37;;
5754;SDS011;2902;42.130;24.732;2024-01-15T01:34:51;93.80;;;43.17;;
5754;SDS011;2902;42.130;24.732;2024-01-15T01:37:18;80.53;;;39.50;;
5754;SDS011;2902;42.130;24.732;2024-01-15T01:39:44;67.47;;;36.10;;
5754;SDS011;2902;42.130;24.732;2024-01-15T01:42:11;68.27;;;36.63;;
5754;SDS011;2902;42.130;24.732;2024-01-15T01:44:38;69.33;;;36.00;;
5754;SDS011;2902;42.130;24.732;2024-01-15T01:47:05;72.03;;;38.17;;
5754;SDS011;2902;42.130;24.732;2024-01-15T01:49:33;73.70;;;37.03;;
5754;SDS011;2902;42.130;24.732;2024-01-15T01:52:01;68.53;;;37.37;;
5754;SDS011;2902;42.130;24.732;2024-01-15T01:54:31;66.57;;;35.30;;
5754;SDS011;2902;42.130;24.732;2024-01-15T01:56:59;65.87;;;34.03;;
5754;SDS011;2902;42.130;24.732;2024-01-15T01:59:27;63.93;;;32.27;;
5754;SDS011;2902;42.130;24.732;2024-01-15T02:01:54;67.27;;;32.23;;
5754;SDS011;2902;42.130;24.732;2024-01-15T02:04:22;59.73;;;31.63;;
5754;SDS011;2902;42.130;24.732;2024-01-15T02:06:52;61.37;;;30.07;;
5754;SDS011;2902;42.130;24.732;2024-01-15T02:09:19;48.47;;;27.43;;
5754;SDS011;2902;42.130;24.732;2024-01-15T02:11:46;50.10;;;27.87;;
5754;SDS011;2902;42.130;24.732;2024-01-15T02:14:13;51.67;;;29.13;;
5754;SDS011;2902;42.130;24.732;2024-01-15T02:16:40;53.63;;;28.57;;
5754;SDS011;2902;42.130;24.732;2024-01-15T02:19:07;55.23;;;29.07;;
5754;SDS011;2902;42.130;24.732;2024-01-15T02:21:33;50.37;;;28.87;;
5754;SDS011;2902;42.130;24.732;2024-01-15T02:24:02;53.77;;;29.17;;
5754;SDS011;2902;42.130;24.732;2024-01-15T02:26:28;52.83;;;28.13;;
5754;SDS011;2902;42.130;24.732;2024-01-15T02:28:55;54.53;;;26.57;;
5754;SDS011;2902;42.130;24.732;2024-01-15T02:31:22;53.10;;;29.37;;
5754;SDS011;2902;42.130;24.732;2024-01-15T02:33:49;56.83;;;28.23;;
5754;SDS011;2902;42.130;24.732;2024-01-15T02:36:15;54.13;;;30.10;;
5754;SDS011;2902;42.130;24.732;2024-01-15T02:38:42;63.77;;;32.33;;
5754;SDS011;2902;42.130;24.732;2024-01-15T02:41:10;60.33;;;31.63;;
5754;SDS011;2902;42.130;24.732;2024-01-15T02:43:39;65.83;;;33.20;;
5754;SDS011;2902;42.130;24.732;2024-01-15T02:46:06;65.87;;;32.27;;
5754;SDS011;2902;42.130;24.732;2024-01-15T02:48:32;63.53;;;33.97;;
5754;SDS011;2902;42.130;24.732;2024-01-15T02:50:59;65.13;;;33.60;;
5754;SDS011;2902;42.130;24.732;2024-01-15T02:53:26;61.77;;;31.47;;
5754;SDS011;2902;42.130;24.732;2024-01-15T02:55:53;68.33;;;34.80;;
5754;SDS011;2902;42.130;24.732;2024-01-15T02:58:21;68.63;;;33.77;;
5754;SDS011;2902;42.130;24.732;2024-01-15T03:00:48;69.67;;;33.13;;
5754;SDS011;2902;42.130;24.732;2024-01-15T03:03:15;71.10;;;33.77;;
5754;SDS011;2902;42.130;24.732;2024-01-15T03:05:41;77.93;;;34.50;;
5754;SDS011;2902;42.130;24.732;2024-01-15T03:08:08;68.23;;;33.60;;
5754;SDS011;2902;42.130;24.732;2024-01-15T03:10:35;69.50;;;34.97;;
5754;SDS011;2902;42.130;24.732;2024-01-15T03:13:01;61.70;;;33.27;;
5754;SDS011;2902;42.130;24.732;2024-01-15T03:15:30;63.47;;;33.47;;
5754;SDS011;2902;42.130;24.732;2024-01-15T03:17:56;57.20;;;30.83;;
5754;SDS011;2902;42.130;24.732;2024-01-15T03:20:23;65.00;;;32.47;;
5754;SDS011;2902;42.130;24.732;2024-01-15T03:22:50;61.40;;;31.93;;
5754;SDS011;2902;42.130;24.732;2024-01-15T03:25:17;60.73;;;30.83;;
5754;SDS011;2902;42.130;24.732;2024-01-15T03:27:43;70.00;;;33.03;;
5754;SDS011;2902;42.130;24.732;2024-01-15T03:30:11;65.73;;;32.50;;
5754;SDS011;2902;42.130;24.732;2024-01-15T03:32:40;62.73;;;32.33;;
5754;SDS011;2902;42.130;24.732;2024-01-15T03:35:07;68.27;;;32.17;;
5754;SDS011;2902;42.130;24.732;2024-01-15T03:37:33;61.00;;;31.17;;
5754;SDS011;2902;42.130;24.732;2024-01-15T03:40:00;62.00;;;31.87;;
5754;SDS011;2902;42.130;24.732;2024-01-15T03:42:27;56.67;;;30.40;;
5754;SDS011;2902;42.130;24.732;2024-01-15T03:44:54;64.97;;;31.33;;
5754;SDS011;2902;42.130;24.732;2024-01-15T03:47:21;66.03;;;32.87;;
5754;SDS011;2902;42.130;24.732;2024-01-15T03:49:49;62.43;;;29.90;;
5754;SDS011;2902;42.130;24.732;2024-01-15T03:52:16;53.60;;;30.13;;
5754;SDS011;2902;42.130;24.732;2024-01-15T03:54:42;60.67;;;29.20;;
5754;SDS011;2902;42.130;24.732;2024-01-15T03:57:09;54.97;;;27.43;;
5754;SDS011;2902;42.130;24.732;2024-01-15T03:59:36;49.67;;;27.87;;
5754;SDS011;2902;42.130;24.732;2024-01-15T04:02:02;54.27;;;28.73;;
5754;SDS011;2902;42.130;24.732;2024-01-15T04:04:30;56.77;;;28.77;;
5754;SDS011;2902;42.130;24.732;2024-01-15T04:06:58;58.77;;;29.87;;
5754;SDS011;2902;42.130;24.732;2024-01-15T04:09:25;77.10;;;36.77;;
5754;SDS011;2902;42.130;24.732;2024-01-15T04:11:51;81.30;;;38.27;;
5754;SDS011;2902;42.130;24.732;2024-01-15T04:14:18;58.00;;;29.40;;
5754;SDS011;2902;42.130;24.732;2024-01-15T04:16:45;56.10;;;30.07;;
5754;SDS011;2902;42.130;24.732;2024-01-15T04:19:11;49.40;;;26.83;;
5754;SDS011;2902;42.130;24.732;2024-01-15T04:21:38;56.37;;;29.63;;
5754;SDS011;2902;42.130;24.732;2024-01-15T04:24:06;47.33;;;25.57;;
5754;SDS011;2902;42.130;24.732;2024-01-15T04:26:33;51.43;;;27.57;;
5754;SDS011;2902;42.130;24.732;2024-01-15T04:29:00;49.83;;;26.13;;
5754;SDS011;2902;42.130;24.732;2024-01-15T04:31:26;47.03;;;26.30;;
5754;SDS011;2902;42.130;24.732;2024-01-15T04:33:53;48.77;;;27.17;;
5754;SDS011;2902;42.130;24.732;2024-01-15T04:36:20;49.53;;;25.93;;
5754;SDS011;2902;42.130;24.732;2024-01-15T04:38:46;44.87;;;26.33;;
5754;SDS011;2902;42.130;24.732;2024-01-15T04:41:15;49.13;;;26.43;;
5754;SDS011;2902;42.130;24.732;2024-01-15T04:43:42;48.60;;;27.33;;
5754;SDS011;2902;42.130;24.732;2024-01-15T04:46:09;51.27;;;27.20;;
5754;SDS011;2902;42.130;24.732;2024-01-15T04:48:36;51.27;;;26.70;;
5754;SDS011;2902;42.130;24.732;2024-01-15T04:51:04;55.00;;;28.47;;
5754;SDS011;2902;42.130;24.732;2024-01-15T04:53:31;59.33;;;27.17;;
5754;SDS011;2902;42.130;24.732;2024-01-15T04:55:59;56.40;;;26.50;;
5754;SDS011;2902;42.130;24.732;2024-01-15T04:58:27;51.07;;;26.03;;
5754;SDS011;2902;42.130;24.732;2024-01-15T05:00:54;55.63;;;26.83;;
5754;SDS011;2902;42.130;24.732;2024-01-15T05:03:21;45.23;;;25.07;;
5754;SDS011;2902;42.130;24.732;2024-01-15T05:05:47;59.47;;;27.30;;
5754;SDS011;2902;42.130;24.732;2024-01-15T05:08:14;54.33;;;26.03;;
5754;SDS011;2902;42.130;24.732;2024-01-15T05:10:41;48.80;;;25.57;;
5754;SDS011;2902;42.130;24.732;2024-01-15T05:13:07;60.27;;;26.53;;
5754;SDS011;2902;42.130;24.732;2024-01-15T05:15:35;48.43;;;23.67;;
5754;SDS011;2902;42.130;24.732;2024-01-15T05:18:02;62.93;;;26.50;;
5754;SDS011;2902;42.130;24.732;2024-01-15T05:20:29;49.07;;;25.50;;
5754;SDS011;2902;42.130;24.732;2024-01-15T05:22:56;59.50;;;27.57;;
5754;SDS011;2902;42.130;24.732;2024-01-15T05:25:22;54.23;;;27.73;;
5754;SDS011;2902;42.130;24.732;2024-01-15T05:27:49;64.67;;;29.93;;
5754;SDS011;2902;42.130;24.732;2024-01-15T05:30:16;59.67;;;30.23;;
5754;SDS011;2902;42.130;24.732;2024-01-15T05:32:44;84.47;;;37.03;;
5754;SDS011;2902;42.130;24.732;2024-01-15T05:35:11;78.87;;;35.07;;
5754;SDS011;2902;42.130;24.732;2024-01-15T05:37:38;59.93;;;31.07;;
5754;SDS011;2902;42.130;24.732;2024-01-15T05:40:06;65.60;;;31.03;;
5754;SDS011;2902;42.130;24.732;2024-01-15T05:42:34;243.67;;;83.47;;
5754;SDS011;2902;42.130;24.732;2024-01-15T05:45:00;375.17;;;119.17;;
5754;SDS011;2902;42.130;24.732;2024-01-15T05:47:29;255.30;;;87.97;;
5754;SDS011;2902;42.130;24.732;2024-01-15T05:49:57;290.90;;;90.20;;
5754;SDS011;2902;42.130;24.732;2024-01-15T05:52:24;147.53;;;51.67;;
5754;SDS011;2902;42.130;24.732;2024-01-15T05:54:51;82.20;;;35.80;;
5754;SDS011;2902;42.130;24.732;2024-01-15T05:57:18;71.40;;;33.43;;
5754;SDS011;2902;42.130;24.732;2024-01-15T05:59:45;66.17;;;34.37;;
5754;SDS011;2902;42.130;24.732;2024-01-15T06:02:11;65.67;;;33.97;;
5754;SDS011;2902;42.130;24.732;2024-01-15T06:04:38;83.27;;;40.90;;
5754;SDS011;2902;42.130;24.732;2024-01-15T06:07:06;96.37;;;44.73;;
5754;SDS011;2902;42.130;24.732;2024-01-15T06:09:33;70.83;;;36.40;;
5754;SDS011;2902;42.130;24.732;2024-01-15T06:11:59;63.70;;;32.50;;
5754;SDS011;2902;42.130;24.732;2024-01-15T06:14:26;73.10;;;33.10;;
5754;SDS011;2902;42.130;24.732;2024-01-15T06:16:53;76.33;;;34.00;;
5754;SDS011;2902;42.130;24.732;2024-01-15T06:19:20;73.03;;;32.27;;
5754;SDS011;2902;42.130;24.732;2024-01-15T06:21:46;72.87;;;31.60;;
5754;SDS011;2902;42.130;24.732;2024-01-15T06:24:14;56.07;;;29.83;;
5754;SDS011;2902;42.130;24.732;2024-01-15T06:26:43;50.10;;;28.53;;
5754;SDS011;2902;42.130;24.732;2024-01-15T06:29:09;54.57;;;27.77;;
5754;SDS011;2902;42.130;24.732;2024-01-15T06:31:36;74.27;;;37.57;;
5754;SDS011;2902;42.130;24.732;2024-01-15T06:34:03;92.43;;;42.70;;
5754;SDS011;2902;42.130;24.732;2024-01-15T06:36:29;78.80;;;42.27;;
5754;SDS011;2902;42.130;24.732;2024-01-15T06:38:56;62.67;;;35.70;;
5754;SDS011;2902;42.130;24.732;2024-01-15T06:41:24;78.97;;;37.83;;
5754;SDS011;2902;42.130;24.732;2024-01-15T06:43:51;57.03;;;31.90;;
5754;SDS011;2902;42.130;24.732;2024-01-15T06:46:19;56.90;;;29.83;;
5754;SDS011;2902;42.130;24.732;2024-01-15T06:48:46;48.50;;;23.57;;
5754;SDS011;2902;42.130;24.732;2024-01-15T06:51:13;50.37;;;26.23;;
5754;SDS011;2902;42.130;24.732;2024-01-15T06:53:40;55.30;;;25.70;;
5754;SDS011;2902;42.130;24.732;2024-01-15T06:56:06;43.60;;;22.40;;
5754;SDS011;2902;42.130;24.732;2024-01-15T06:58:35;45.73;;;24.27;;
5754;SDS011;2902;42.130;24.732;2024-01-15T07:01:02;80.20;;;38.73;;
5754;SDS011;2902;42.130;24.732;2024-01-15T07:03:29;83.70;;;40.13;;
5754;SDS011;2902;42.130;24.732;2024-01-15T07:05:56;85.53;;;38.70;;
5754;SDS011;2902;42.130;24.732;2024-01-15T07:08:23;69.10;;;34.73;;
5754;SDS011;2902;42.130;24.732;2024-01-15T07:10:49;69.47;;;33.23;;
5754;SDS011;2902;42.130;24.732;2024-01-15T07:13:16;72.67;;;38.17;;
5754;SDS011;2902;42.130;24.732;2024-01-15T07:15:44;71.97;;;37.73;;
5754;SDS011;2902;42.130;24.732;2024-01-15T07:18:11;77.40;;;40.63;;
5754;SDS011;2902;42.130;24.732;2024-01-15T07:20:38;98.63;;;56.20;;
5754;SDS011;2902;42.130;24.732;2024-01-15T07:23:04;73.67;;;41.90;;
5754;SDS011;2902;42.130;24.732;2024-01-15T07:25:32;106.50;;;48.97;;
5754;SDS011;2902;42.130;24.732;2024-01-15T07:27:59;116.73;;;53.47;;
5754;SDS011;2902;42.130;24.732;2024-01-15T07:30:26;109.37;;;51.67;;
5754;SDS011;2902;42.130;24.732;2024-01-15T07:32:54;92.77;;;47.37;;
5754;SDS011;2902;42.130;24.732;2024-01-15T07:35:20;102.07;;;50.17;;
5754;SDS011;2902;42.130;24.732;2024-01-15T07:37:47;100.90;;;45.67;;
5754;SDS011;2902;42.130;24.732;2024-01-15T07:40:14;83.33;;;41.70;;
5754;SDS011;2902;42.130;24.732;2024-01-15T07:42:41;82.63;;;44.83;;
5754;SDS011;2902;42.130;24.732;2024-01-15T07:45:08;102.07;;;48.77;;
5754;SDS011;2902;42.130;24.732;2024-01-15T07:47:35;96.90;;;48.37;;
5754;SDS011;2902;42.130;24.732;2024-01-15T07:50:03;99.23;;;47.47;;
5754;SDS011;2902;42.130;24.732;2024-01-15T07:52:30;86.23;;;45.37;;
5754;SDS011;2902;42.130;24.732;2024-01-15T07:54:57;92.43;;;42.37;;
5754;SDS011;2902;42.130;24.732;2024-01-15T07:57:25;85.97;;;43.97;;
5754;SDS011;2902;42.130;24.732;2024-01-15T07:59:52;69.33;;;37.40;;
5754;SDS011;2902;42.130;24.732;2024-01-15T08:02:19;72.90;;;35.43;;
5754;SDS011;2902;42.130;24.732;2024-01-15T08:04:46;76.10;;;39.07;;
5754;SDS011;2902;42.130;24.732;2024-01-15T08:07:14;85.80;;;42.47;;
5754;SDS011;2902;42.130;24.732;2024-01-15T08:09:42;92.67;;;40.93;;
5754;SDS011;2902;42.130;24.732;2024-01-15T08:12:09;83.90;;;39.00;;
5754;SDS011;2902;42.130;24.732;2024-01-15T08:14:36;75.50;;;36.80;;
5754;SDS011;2902;42.130;24.732;2024-01-15T08:17:03;67.83;;;37.73;;
5754;SDS011;2902;42.130;24.732;2024-01-15T08:19:30;108.80;;;42.97;;
5754;SDS011;2902;42.130;24.732;2024-01-15T08:21:57;87.60;;;38.37;;
5754;SDS011;2902;42.130;24.732;2024-01-15T08:24:25;55.60;;;31.17;;
5754;SDS011;2902;42.130;24.732;2024-01-15T08:26:52;54.77;;;30.93;;
5754;SDS011;2902;42.130;24.732;2024-01-15T08:29:18;57.87;;;30.40;;
5754;SDS011;2902;42.130;24.732;2024-01-15T08:31:46;52.50;;;28.07;;
5754;SDS011;2902;42.130;24.732;2024-01-15T08:34:13;58.13;;;28.63;;
5754;SDS011;2902;42.130;24.732;2024-01-15T08:36:39;58.90;;;28.27;;
5754;SDS011;2902;42.130;24.732;2024-01-15T08:39:06;64.83;;;29.90;;
5754;SDS011;2902;42.130;24.732;2024-01-15T08:41:35;45.10;;;24.40;;
5754;SDS011;2902;42.130;24.732;2024-01-15T08:44:02;42.13;;;24.57;;
5754;SDS011;2902;42.130;24.732;2024-01-15T08:46:29;49.43;;;26.97;;
5754;SDS011;2902;42.130;24.732;2024-01-15T08:48:56;49.07;;;28.67;;
5754;SDS011;2902;42.130;24.732;2024-01-15T08:51:22;52.20;;;26.60;;
5754;SDS011;2902;42.130;24.732;2024-01-15T08:53:49;45.47;;;24.60;;
5754;SDS011;2902;42.130;24.732;2024-01-15T08:56:16;43.80;;;24.83;;
5754;SDS011;2902;42.130;24.732;2024-01-15T08:58:44;43.60;;;24.63;;
5754;SDS011;2902;42.130;24.732;2024-01-15T09:01:11;43.03;;;24.13;;
5754;SDS011;2902;42.130;24.732;2024-01-15T09:03:38;61.90;;;27.47;;
5754;SDS011;2902;42.130;24.732;2024-01-15T09:06:06;76.77;;;28.73;;
5754;SDS011;2902;42.130;24.732;2024-01-15T09:08:34;52.60;;;28.77;;
5754;SDS011;2902;42.130;24.732;2024-01-15T09:11:01;49.43;;;27.50;;
5754;SDS011;2902;42.130;24.732;2024-01-15T09:13:28;55.87;;;26.63;;
5754;SDS011;2902;42.130;24.732;2024-01-15T09:15:57;48.33;;;27.03;;
5754;SDS011;2902;42.130;24.732;2024-01-15T09:18:24;88.90;;;28.17;;
5754;SDS011;2902;42.130;24.732;2024-01-15T09:20:51;52.33;;;28.75;;
5754;SDS011;2902;42.130;24.732;2024-01-15T09:23:18;55.97;;;28.80;;
5754;SDS011;2902;42.130;24.732;2024-01-15T09:25:44;54.97;;;29.60;;
5754;SDS011;2902;42.130;24.732;2024-01-15T09:28:11;56.63;;;29.87;;
5754;SDS011;2902;42.130;24.732;2024-01-15T09:30:38;55.10;;;26.63;;
5754;SDS011;2902;42.130;24.732;2024-01-15T09:33:06;50.17;;;26.17;;
5754;SDS011;2902;42.130;24.732;2024-01-15T09:35:32;45.03;;;24.63;;
5754;SDS011;2902;42.130;24.732;2024-01-15T09:37:59;43.83;;;25.97;;
5754;SDS011;2902;42.130;24.732;2024-01-15T09:40:27;40.50;;;25.80;;
5754;SDS011;2902;42.130;24.732;2024-01-15T09:42:57;56.90;;;29.70;;
5754;SDS011;2902;42.130;24.732;2024-01-15T09:45:25;43.63;;;25.10;;
5754;SDS011;2902;42.130;24.732;2024-01-15T09:47:52;48.37;;;26.43;;
5754;SDS011;2902;42.130;24.732;2024-01-15T09:50:20;50.97;;;24.07;;
5754;SDS011;2902;42.130;24.732;2024-01-15T09:52:47;41.53;;;24.73;;
5754;SDS011;2902;42.130;24.732;2024-01-15T09:55:15;50.70;;;26.10;;
5754;SDS011;2902;42.130;24.732;2024-01-15T09:57:44;39.53;;;25.30;;
5754;SDS011;2902;42.130;24.732;2024-01-15T10:00:12;48.30;;;25.60;;
5754;SDS011;2902;42.130;24.732;2024-01-15T10:02:39;48.30;;;25.27;;
5754;SDS011;2902;42.130;24.732;2024-01-15T10:05:06;48.67;;;25.00;;
5754;SDS011;2902;42.130;24.732;2024-01-15T10:07:36;43.87;;;25.77;;
5754;SDS011;2902;42.130;24.732;2024-01-15T10:10:05;42.30;;;24.80;;
5754;SDS011;2902;42.130;24.732;2024-01-15T10:12:32;49.10;;;27.67;;
5754;SDS011;2902;42.130;24.732;2024-01-15T10:14:59;47.53;;;24.90;;
5754;SDS011;2902;42.130;24.732;2024-01-15T10:17:25;55.73;;;27.47;;
5754;SDS011;2902;42.130;24.732;2024-01-15T10:19:53;54.50;;;28.40;;
5754;SDS011;2902;42.130;24.732;2024-01-15T10:22:20;54.90;;;26.83;;
5754;SDS011;2902;42.130;24.732;2024-01-15T10:24:48;55.07;;;29.07;;
5754;SDS011;2902;42.130;24.732;2024-01-15T10:27:15;55.07;;;29.20;;
5754;SDS011;2902;42.130;24.732;2024-01-15T10:29:42;49.47;;;28.23;;
5754;SDS011;2902;42.130;24.732;2024-01-15T10:32:09;48.97;;;28.23;;
5754;SDS011;2902;42.130;24.732;2024-01-15T10:34:37;57.13;;;27.50;;
5754;SDS011;2902;42.130;24.732;2024-01-15T10:37:06;52.23;;;29.80;;
5754;SDS011;2902;42.130;24.732;2024-01-15T10:39:34;58.17;;;29.00;;
5754;SDS011;2902;42.130;24.732;2024-01-15T10:42:02;45.47;;;27.53;;
5754;SDS011;2902;42.130;24.732;2024-01-15T10:44:30;48.67;;;28.77;;
5754;SDS011;2902;42.130;24.732;2024-01-15T10:46:57;50.77;;;29.53;;
5754;SDS011;2902;42.130;24.732;2024-01-15T10:49:24;49.93;;;28.37;;
5754;SDS011;2902;42.130;24.732;2024-01-15T10:51:53;54.17;;;31.47;;
5754;SDS011;2902;42.130;24.732;2024-01-15T10:54:20;49.00;;;29.23;;
5754;SDS011;2902;42.130;24.732;2024-01-15T10:56:49;57.10;;;31.17;;
5754;SDS011;2902;42.130;24.732;2024-01-15T10:59:19;71.27;;;36.93;;
5754;SDS011;2902;42.130;24.732;2024-01-15T11:01:46;62.90;;;31.17;;
5754;SDS011;2902;42.130;24.732;2024-01-15T11:04:14;61.33;;;31.37;;
5754;SDS011;2902;42.130;24.732;2024-01-15T11:06:42;59.80;;;30.73;;
5754;SDS011;2902;42.130;24.732;2024-01-15T11:09:11;57.60;;;29.03;;
5754;SDS011;2902;42.130;24.732;2024-01-15T11:11:40;52.43;;;29.70;;
5754;SDS011;2902;42.130;24.732;2024-01-15T11:14:08;41.23;;;26.30;;
5754;SDS011;2902;42.130;24.732;2024-01-15T11:16:54;45.67;;;28.37;;
5754;SDS011;2902;42.130;24.732;2024-01-15T11:19:24;35.77;;;22.33;;
5754;SDS011;2902;42.130;24.732;2024-01-15T11:21:51;41.60;;;24.40;;
5754;SDS011;2902;42.130;24.732;2024-01-15T11:24:36;35.97;;;23.07;;
5754;SDS011;2902;42.130;24.732;2024-01-15T11:27:04;42.60;;;25.20;;
5754;SDS011;2902;42.130;24.732;2024-01-15T11:29:32;43.70;;;25.87;;
5754;SDS011;2902;42.130;24.732;2024-01-15T11:32:02;56.17;;;27.60;;
5754;SDS011;2902;42.130;24.732;2024-01-15T11:37:19;44.37;;;23.83;;
5754;SDS011;2902;42.130;24.732;2024-01-15T11:39:46;49.20;;;25.23;;
5754;SDS011;2902;42.130;24.732;2024-01-15T11:42:13;38.43;;;25.37;;
5754;SDS011;2902;42.130;24.732;2024-01-15T11:44:41;44.53;;;24.00;;
5754;SDS011;2902;42.130;24.732;2024-01-15T11:47:09;31.80;;;21.40;;
5754;SDS011;2902;42.130;24.732;2024-01-15T11:52:29;32.07;;;21.87;;
5754;SDS011;2902;42.130;24.732;2024-01-15T11:55:00;44.67;;;23.23;;
5754;SDS011;2902;42.130;24.732;2024-01-15T11:57:33;35.90;;;23.07;;
5754;SDS011;2902;42.130;24.732;2024-01-15T12:00:08;38.53;;;22.17;;
5754;SDS011;2902;42.130;24.732;2024-01-15T12:02:37;38.03;;;22.97;;
5754;SDS011;2902;42.130;24.732;2024-01-15T12:05:04;39.83;;;24.40;;
5754;SDS011;2902;42.130;24.732;2024-01-15T12:07:32;41.37;;;25.33;;
5754;SDS011;2902;42.130;24.732;2024-01-15T12:09:59;44.30;;;22.17;;
5754;SDS011;2902;42.130;24.732;2024-01-15T12:12:27;37.20;;;23.27;;
5754;SDS011;2902;42.130;24.732;2024-01-15T12:15:03;39.57;;;23.27;;
5754;SDS011;2902;42.130;24.732;2024-01-15T12:17:30;35.43;;;21.20;;
5754;SDS011;2902;42.130;24.732;2024-01-15T12:19:59;34.43;;;21.73;;
5754;SDS011;2902;42.130;24.732;2024-01-15T12:22:25;39.03;;;21.73;;
5754;SDS011;2902;42.130;24.732;2024-01-15T12:24:53;39.43;;;22.20;;
5754;SDS011;2902;42.130;24.732;2024-01-15T12:27:20;38.63;;;22.17;;
5754;SDS011;2902;42.130;24.732;2024-01-15T12:29:47;41.37;;;23.80;;
5754;SDS011;2902;42.130;24.732;2024-01-15T12:32:14;79.83;;;40.40;;
5754;SDS011;2902;42.130;24.732;2024-01-15T12:34:40;40.50;;;24.80;;
5754;SDS011;2902;42.130;24.732;2024-01-15T12:37:09;39.70;;;24.30;;
5754;SDS011;2902;42.130;24.732;2024-01-15T12:39:38;37.70;;;23.23;;
5754;SDS011;2902;42.130;24.732;2024-01-15T12:42:05;39.03;;;21.17;;
5754;SDS011;2902;42.130;24.732;2024-01-15T12:44:32;33.40;;;20.60;;
5754;SDS011;2902;42.130;24.732;2024-01-15T12:46:58;46.73;;;22.87;;
5754;SDS011;2902;42.130;24.732;2024-01-15T12:49:25;33.07;;;22.23;;
5754;SDS011;2902;42.130;24.732;2024-01-15T12:51:52;35.20;;;22.30;;
5754;SDS011;2902;42.130;24.732;2024-01-15T12:54:21;101.50;;;63.23;;
5754;SDS011;2902;42.130;24.732;2024-01-15T12:56:48;59.07;;;36.57;;
5754;SDS011;2902;42.130;24.732;2024-01-15T12:59:15;41.93;;;24.73;;
5754;SDS011;2902;42.130;24.732;2024-01-15T13:01:43;51.37;;;26.97;;
5754;SDS011;2902;42.130;24.732;2024-01-15T13:04:09;42.43;;;26.00;;
5754;SDS011;2902;42.130;24.732;2024-01-15T13:06:36;64.60;;;30.37;;
5754;SDS011;2902;42.130;24.732;2024-01-15T13:09:03;68.00;;;34.93;;
5754;SDS011;2902;42.130;24.732;2024-01-15T13:11:32;67.20;;;36.80;;
5754;SDS011;2902;42.130;24.732;2024-01-15T13:13:59;66.23;;;36.13;;
5754;SDS011;2902;42.130;24.732;2024-01-15T13:16:26;67.07;;;35.23;;
5754;SDS011;2902;42.130;24.732;2024-01-15T13:18:54;62.40;;;35.20;;
5754;SDS011;2902;42.130;24.732;2024-01-15T13:21:21;65.73;;;36.33;;
5754;SDS011;2902;42.130;24.732;2024-01-15T13:23:48;68.40;;;37.40;;
5754;SDS011;2902;42.130;24.732;2024-01-15T13:26:14;65.33;;;36.23;;
5754;SDS011;2902;42.130;24.732;2024-01-15T13:28:44;66.80;;;36.97;;
5754;SDS011;2902;42.130;24.732;2024-01-15T13:31:11;65.00;;;36.27;;
5754;SDS011;2902;42.130;24.732;2024-01-15T13:33:38;72.10;;;36.30;;
5754;SDS011;2902;42.130;24.732;2024-01-15T13:36:05;66.77;;;36.33;;
5754;SDS011;2902;42.130;24.732;2024-01-15T13:38:33;71.40;;;39.90;;
5754;SDS011;2902;42.130;24.732;2024-01-15T13:41:02;69.20;;;39.07;;
5754;SDS011;2902;42.130;24.732;2024-01-15T13:43:30;94.37;;;41.33;;
5754;SDS011;2902;42.130;24.732;2024-01-15T13:45:59;80.60;;;39.47;;
5754;SDS011;2902;42.130;24.732;2024-01-15T13:48:29;113.60;;;45.13;;
5754;SDS011;2902;42.130;24.732;2024-01-15T13:50:56;94.60;;;40.90;;
5754;SDS011;2902;42.130;24.732;2024-01-15T13:53:24;92.97;;;43.40;;
5754;SDS011;2902;42.130;24.732;2024-01-15T13:55:51;132.97;;;52.67;;
5754;SDS011;2902;42.130;24.732;2024-01-15T13:58:17;125.93;;;50.80;;
5754;SDS011;2902;42.130;24.732;2024-01-15T14:00:46;94.70;;;44.03;;
5754;SDS011;2902;42.130;24.732;2024-01-15T14:03:14;162.43;;;60.90;;
5754;SDS011;2902;42.130;24.732;2024-01-15T14:05:41;86.93;;;45.23;;
5754;SDS011;2902;42.130;24.732;2024-01-15T14:08:08;71.90;;;43.10;;
5754;SDS011;2902;42.130;24.732;2024-01-15T14:10:35;79.60;;;41.77;;
5754;SDS011;2902;42.130;24.732;2024-01-15T14:13:02;73.63;;;38.33;;
5754;SDS011;2902;42.130;24.732;2024-01-15T14:15:29;65.97;;;37.83;;
5754;SDS011;2902;42.130;24.732;2024-01-15T14:17:56;73.17;;;37.70;;
5754;SDS011;2902;42.130;24.732;2024-01-15T14:20:24;69.63;;;39.30;;
5754;SDS011;2902;42.130;24.732;2024-01-15T14:22:51;73.67;;;36.57;;
5754;SDS011;2902;42.130;24.732;2024-01-15T14:25:18;67.13;;;37.77;;
5754;SDS011;2902;42.130;24.732;2024-01-15T14:27:44;74.00;;;39.47;;
5754;SDS011;2902;42.130;24.732;2024-01-15T14:30:12;74.37;;;39.40;;
5754;SDS011;2902;42.130;24.732;2024-01-15T14:32:41;75.13;;;38.83;;
5754;SDS011;2902;42.130;24.732;2024-01-15T14:35:07;77.23;;;38.70;;
5754;SDS011;2902;42.130;24.732;2024-01-15T14:37:37;78.97;;;40.00;;
5754;SDS011;2902;42.130;24.732;2024-01-15T14:40:04;89.60;;;40.27;;